KART/ART METAR and TAF weather

Enter ICAO airport designator
Station Type Date Time Source
KART METAR 2019/12/06 03:56 UTC NOAA

KART 060356Z AUTO 29007KT 10SM OVC120 M03/M08 A3004 RMK AO2 SLP180 T10331083


Station Type Date Time Source
KART Decoded METAR 2019/12/06 03:56 UTC NOAA

WATERTOWN INTERNATIONAL AIRPORT, NY, United States (KART) 43-59N 076-02W 100M
Dec 05, 2019 - 10:56 PM EST / 2019.12.06 0356 UTC
Wind: from the WNW (290 degrees) at 8 MPH (7 KT):0
Visibility: 10 mile(s):0
Sky conditions: overcast
Temperature: 26.1 F (-3.3 C)
Windchill: 17 F (-8 C):1
Dew Point: 17.1 F (-8.3 C)
Relative Humidity: 68%
Pressure (altimeter): 30.04 in. Hg (1017 hPa)
ob: KART 060356Z AUTO 29007KT 10SM OVC120 M03/M08 A3004 RMK AO2 SLP180 T10331083
cycle: 4

Station Type Date Time Source
KART TAF 2019/12/06 03:06 UTC NOAA

TAF
AMD KART 060305Z 0603/0624 28008KT P6SM SCT030
FM060800 VRB03KT P6SM BKN050
FM061000 VRB03KT 2SM -SN BKN035
FM061700 03006KT 1SM BR OVC012
FM062000 36007KT 3SM BR OVC015
FM062300 32005KT P6SM BKN020

Example: see airport list